Ryan, Oklahoma
Current Conditions -  °F | °C
As of 5:35 PM on Saturday 22 Nov 2014 (Local Time) from K0F2 Reporting Station
Moderate Rain Moderate Rain  
Wind Chill: 58°   Ceiling: 2700
Heat Index: 58°   Visibility: 7mi
Dew Point: 57°   Wind: 6mph
Humidity: 97%   Direction: 250°WSW
Pressure: 29.88"   Gusts: NA
Location:  34.02°N, 97.96°W
Report Text: K0F2 222335Z AUTO 25005KT 7SM RA SCT017 BKN027 OVC050 14/14 A2988 RMK AO2 LTG DSNT SE THRU SW P0048 T01440140
Loading
Personal Weather Stations






























Interactive Weather Map New forecast layout! Learn more

10-Day Weather Forecast

Advertisements
Track Severe Weather on mobile